sensor_id;sensor_type;location;lat;lon;timestamp;P1;durP1;ratioP1;P2;durP2;ratioP2
11522;SDS011;70090;43.208;27.904;2023-06-24T00:02:08;23.77;;;20.87;;
11522;SDS011;70090;43.208;27.904;2023-06-24T00:04:35;23.80;;;20.50;;
11522;SDS011;70090;43.208;27.904;2023-06-24T00:07:01;22.10;;;20.00;;
11522;SDS011;70090;43.208;27.904;2023-06-24T00:09:30;23.50;;;21.23;;
11522;SDS011;70090;43.208;27.904;2023-06-24T00:11:57;22.50;;;20.40;;
11522;SDS011;70090;43.208;27.904;2023-06-24T00:14:25;23.50;;;21.13;;
11522;SDS011;70090;43.208;27.904;2023-06-24T00:16:52;22.63;;;20.33;;
11522;SDS011;70090;43.208;27.904;2023-06-24T00:19:22;23.50;;;21.37;;
11522;SDS011;70090;43.208;27.904;2023-06-24T00:21:50;23.30;;;20.97;;
11522;SDS011;70090;43.208;27.904;2023-06-24T00:24:17;21.83;;;19.63;;
11522;SDS011;70090;43.208;27.904;2023-06-24T00:26:47;23.20;;;21.00;;
11522;SDS011;70090;43.208;27.904;2023-06-24T00:29:13;24.37;;;21.80;;
11522;SDS011;70090;43.208;27.904;2023-06-24T00:31:41;29.17;;;22.33;;
11522;SDS011;70090;43.208;27.904;2023-06-24T00:34:08;35.90;;;25.23;;
11522;SDS011;70090;43.208;27.904;2023-06-24T00:36:35;32.87;;;27.27;;
11522;SDS011;70090;43.208;27.904;2023-06-24T00:39:03;39.73;;;27.43;;
11522;SDS011;70090;43.208;27.904;2023-06-24T00:41:30;36.90;;;29.13;;
11522;SDS011;70090;43.208;27.904;2023-06-24T00:43:59;39.40;;;29.00;;
11522;SDS011;70090;43.208;27.904;2023-06-24T00:46:27;41.00;;;28.80;;
11522;SDS011;70090;43.208;27.904;2023-06-24T00:48:57;32.17;;;27.20;;
11522;SDS011;70090;43.208;27.904;2023-06-24T00:51:25;34.97;;;27.40;;
11522;SDS011;70090;43.208;27.904;2023-06-24T00:53:55;35.93;;;27.33;;
11522;SDS011;70090;43.208;27.904;2023-06-24T00:56:24;34.17;;;26.57;;
11522;SDS011;70090;43.208;27.904;2023-06-24T00:58:54;32.17;;;26.57;;
11522;SDS011;70090;43.208;27.904;2023-06-24T01:01:22;32.00;;;26.50;;
11522;SDS011;70090;43.208;27.904;2023-06-24T01:03:50;32.97;;;27.20;;
11522;SDS011;70090;43.208;27.904;2023-06-24T01:06:16;37.20;;;28.00;;
11522;SDS011;70090;43.208;27.904;2023-06-24T01:08:45;37.30;;;27.57;;
11522;SDS011;70090;43.208;27.904;2023-06-24T01:11:15;32.33;;;26.47;;
11522;SDS011;70090;43.208;27.904;2023-06-24T01:13:42;38.63;;;26.83;;
11522;SDS011;70090;43.208;27.904;2023-06-24T01:16:10;30.83;;;26.20;;
11522;SDS011;70090;43.208;27.904;2023-06-24T01:18:46;30.00;;;25.37;;
11522;SDS011;70090;43.208;27.904;2023-06-24T01:21:16;27.80;;;24.50;;
11522;SDS011;70090;43.208;27.904;2023-06-24T01:23:59;37.03;;;26.13;;
11522;SDS011;70090;43.208;27.904;2023-06-24T01:27:00;32.93;;;25.57;;
11522;SDS011;70090;43.208;27.904;2023-06-24T01:32:43;30.00;;;25.03;;
11522;SDS011;70090;43.208;27.904;2023-06-24T01:35:15;29.60;;;25.50;;
11522;SDS011;70090;43.208;27.904;2023-06-24T01:37:46;28.87;;;25.13;;
11522;SDS011;70090;43.208;27.904;2023-06-24T01:40:18;25.83;;;23.13;;
11522;SDS011;70090;43.208;27.904;2023-06-24T01:42:49;26.27;;;22.10;;
11522;SDS011;70090;43.208;27.904;2023-06-24T01:45:19;33.07;;;23.17;;
11522;SDS011;70090;43.208;27.904;2023-06-24T01:47:49;26.30;;;20.70;;
11522;SDS011;70090;43.208;27.904;2023-06-24T01:50:25;21.97;;;19.43;;
11522;SDS011;70090;43.208;27.904;2023-06-24T01:52:53;26.77;;;20.97;;
11522;SDS011;70090;43.208;27.904;2023-06-24T01:55:23;24.60;;;20.83;;
11522;SDS011;70090;43.208;27.904;2023-06-24T01:57:52;29.80;;;22.27;;
11522;SDS011;70090;43.208;27.904;2023-06-24T02:00:22;25.17;;;22.27;;
11522;SDS011;70090;43.208;27.904;2023-06-24T02:02:51;26.23;;;22.90;;
11522;SDS011;70090;43.208;27.904;2023-06-24T02:05:20;28.40;;;22.30;;
11522;SDS011;70090;43.208;27.904;2023-06-24T02:07:47;29.43;;;25.17;;
11522;SDS011;70090;43.208;27.904;2023-06-24T02:10:16;28.40;;;25.50;;
11522;SDS011;70090;43.208;27.904;2023-06-24T02:12:45;28.63;;;24.70;;
11522;SDS011;70090;43.208;27.904;2023-06-24T02:15:14;27.90;;;24.83;;
11522;SDS011;70090;43.208;27.904;2023-06-24T02:17:43;29.90;;;24.87;;
11522;SDS011;70090;43.208;27.904;2023-06-24T02:20:13;28.73;;;25.77;;
11522;SDS011;70090;43.208;27.904;2023-06-24T02:22:42;29.63;;;25.20;;
11522;SDS011;70090;43.208;27.904;2023-06-24T02:25:11;29.57;;;26.40;;
11522;SDS011;70090;43.208;27.904;2023-06-24T02:27:39;29.70;;;25.33;;
11522;SDS011;70090;43.208;27.904;2023-06-24T02:30:07;31.33;;;28.10;;
11522;SDS011;70090;43.208;27.904;2023-06-24T02:32:35;31.77;;;27.33;;
11522;SDS011;70090;43.208;27.904;2023-06-24T02:35:04;33.07;;;29.23;;
11522;SDS011;70090;43.208;27.904;2023-06-24T02:37:34;34.47;;;27.90;;
11522;SDS011;70090;43.208;27.904;2023-06-24T02:40:01;38.63;;;28.77;;
11522;SDS011;70090;43.208;27.904;2023-06-24T02:42:29;38.47;;;29.57;;
11522;SDS011;70090;43.208;27.904;2023-06-24T02:44:56;30.80;;;27.70;;
11522;SDS011;70090;43.208;27.904;2023-06-24T02:47:23;30.67;;;27.23;;
11522;SDS011;70090;43.208;27.904;2023-06-24T02:49:51;33.87;;;28.60;;
11522;SDS011;70090;43.208;27.904;2023-06-24T02:52:19;32.03;;;26.00;;
11522;SDS011;70090;43.208;27.904;2023-06-24T02:54:47;36.87;;;28.10;;
11522;SDS011;70090;43.208;27.904;2023-06-24T02:57:15;29.07;;;25.97;;
11522;SDS011;70090;43.208;27.904;2023-06-24T02:59:44;28.53;;;24.60;;
11522;SDS011;70090;43.208;27.904;2023-06-24T03:02:11;28.37;;;23.73;;
11522;SDS011;70090;43.208;27.904;2023-06-24T03:04:38;28.77;;;24.70;;
11522;SDS011;70090;43.208;27.904;2023-06-24T03:07:06;24.83;;;22.33;;
11522;SDS011;70090;43.208;27.904;2023-06-24T03:09:35;22.47;;;20.20;;
11522;SDS011;70090;43.208;27.904;2023-06-24T03:12:04;25.57;;;22.83;;
11522;SDS011;70090;43.208;27.904;2023-06-24T03:14:32;24.67;;;22.33;;
11522;SDS011;70090;43.208;27.904;2023-06-24T03:16:59;24.30;;;21.90;;
11522;SDS011;70090;43.208;27.904;2023-06-24T03:19:26;23.47;;;21.20;;
11522;SDS011;70090;43.208;27.904;2023-06-24T03:21:53;25.77;;;22.33;;
11522;SDS011;70090;43.208;27.904;2023-06-24T03:24:19;25.07;;;22.10;;
11522;SDS011;70090;43.208;27.904;2023-06-24T03:26:46;23.57;;;21.07;;
11522;SDS011;70090;43.208;27.904;2023-06-24T03:29:17;24.37;;;21.77;;
11522;SDS011;70090;43.208;27.904;2023-06-24T03:31:43;27.60;;;22.30;;
11522;SDS011;70090;43.208;27.904;2023-06-24T03:34:10;24.83;;;22.20;;
11522;SDS011;70090;43.208;27.904;2023-06-24T03:36:38;25.70;;;22.03;;
11522;SDS011;70090;43.208;27.904;2023-06-24T03:39:05;24.90;;;22.30;;
11522;SDS011;70090;43.208;27.904;2023-06-24T03:41:32;24.27;;;21.87;;
11522;SDS011;70090;43.208;27.904;2023-06-24T03:43:59;41.37;;;37.07;;
11522;SDS011;70090;43.208;27.904;2023-06-24T03:46:27;26.17;;;23.40;;
11522;SDS011;70090;43.208;27.904;2023-06-24T03:48:57;26.17;;;23.40;;
11522;SDS011;70090;43.208;27.904;2023-06-24T03:51:25;26.57;;;22.80;;
11522;SDS011;70090;43.208;27.904;2023-06-24T03:53:52;26.43;;;23.70;;
11522;SDS011;70090;43.208;27.904;2023-06-24T03:56:18;31.63;;;28.03;;
11522;SDS011;70090;43.208;27.904;2023-06-24T03:58:45;30.87;;;26.57;;
11522;SDS011;70090;43.208;27.904;2023-06-24T04:01:12;29.50;;;26.33;;
11522;SDS011;70090;43.208;27.904;2023-06-24T04:03:40;31.60;;;27.70;;
11522;SDS011;70090;43.208;27.904;2023-06-24T04:06:07;26.63;;;23.17;;
11522;SDS011;70090;43.208;27.904;2023-06-24T04:08:34;26.43;;;23.17;;
11522;SDS011;70090;43.208;27.904;2023-06-24T04:11:04;26.57;;;22.53;;
11522;SDS011;70090;43.208;27.904;2023-06-24T04:13:31;25.70;;;22.57;;
11522;SDS011;70090;43.208;27.904;2023-06-24T04:15:58;27.37;;;21.87;;
11522;SDS011;70090;43.208;27.904;2023-06-24T04:18:25;23.77;;;21.10;;
11522;SDS011;70090;43.208;27.904;2023-06-24T04:20:54;25.43;;;21.43;;
11522;SDS011;70090;43.208;27.904;2023-06-24T04:23:22;24.43;;;20.67;;
11522;SDS011;70090;43.208;27.904;2023-06-24T04:25:49;27.73;;;21.93;;
11522;SDS011;70090;43.208;27.904;2023-06-24T04:28:16;24.50;;;20.67;;
11522;SDS011;70090;43.208;27.904;2023-06-24T04:30:43;26.60;;;20.07;;
11522;SDS011;70090;43.208;27.904;2023-06-24T04:33:09;25.97;;;20.17;;
11522;SDS011;70090;43.208;27.904;2023-06-24T04:35:36;27.87;;;22.20;;
11522;SDS011;70090;43.208;27.904;2023-06-24T04:38:04;29.27;;;25.03;;
11522;SDS011;70090;43.208;27.904;2023-06-24T04:40:31;29.80;;;24.30;;
11522;SDS011;70090;43.208;27.904;2023-06-24T04:42:58;24.87;;;22.20;;
11522;SDS011;70090;43.208;27.904;2023-06-24T04:45:25;23.53;;;20.63;;
11522;SDS011;70090;43.208;27.904;2023-06-24T04:47:52;25.80;;;19.13;;
11522;SDS011;70090;43.208;27.904;2023-06-24T04:50:19;24.57;;;18.70;;
11522;SDS011;70090;43.208;27.904;2023-06-24T04:52:47;23.93;;;20.43;;
11522;SDS011;70090;43.208;27.904;2023-06-24T04:55:20;22.57;;;18.00;;
11522;SDS011;70090;43.208;27.904;2023-06-24T04:57:48;18.93;;;16.93;;
11522;SDS011;70090;43.208;27.904;2023-06-24T05:00:15;23.97;;;16.53;;
11522;SDS011;70090;43.208;27.904;2023-06-24T05:02:42;17.43;;;15.63;;
11522;SDS011;70090;43.208;27.904;2023-06-24T05:05:10;20.77;;;16.20;;
11522;SDS011;70090;43.208;27.904;2023-06-24T05:07:37;14.50;;;13.00;;
11522;SDS011;70090;43.208;27.904;2023-06-24T05:10:04;14.97;;;12.20;;
11522;SDS011;70090;43.208;27.904;2023-06-24T05:12:33;11.27;;;10.00;;
11522;SDS011;70090;43.208;27.904;2023-06-24T05:15:00;12.97;;;9.73;;
11522;SDS011;70090;43.208;27.904;2023-06-24T05:17:27;10.40;;;9.30;;
11522;SDS011;70090;43.208;27.904;2023-06-24T05:19:54;10.37;;;9.03;;
11522;SDS011;70090;43.208;27.904;2023-06-24T05:22:21;9.70;;;8.70;;
11522;SDS011;70090;43.208;27.904;2023-06-24T05:24:48;9.90;;;9.00;;
11522;SDS011;70090;43.208;27.904;2023-06-24T05:27:15;9.97;;;9.03;;
11522;SDS011;70090;43.208;27.904;2023-06-24T05:29:44;10.60;;;9.27;;
11522;SDS011;70090;43.208;27.904;2023-06-24T05:32:10;9.70;;;8.67;;
11522;SDS011;70090;43.208;27.904;2023-06-24T05:34:37;9.87;;;8.93;;
11522;SDS011;70090;43.208;27.904;2023-06-24T05:37:04;10.20;;;8.60;;
11522;SDS011;70090;43.208;27.904;2023-06-24T05:39:31;9.80;;;8.90;;
11522;SDS011;70090;43.208;27.904;2023-06-24T05:41:58;9.90;;;8.83;;
11522;SDS011;70090;43.208;27.904;2023-06-24T05:44:25;8.87;;;7.97;;
11522;SDS011;70090;43.208;27.904;2023-06-24T05:46:53;9.33;;;8.47;;
11522;SDS011;70090;43.208;27.904;2023-06-24T05:49:20;9.77;;;8.67;;
11522;SDS011;70090;43.208;27.904;2023-06-24T05:51:46;10.03;;;8.67;;
11522;SDS011;70090;43.208;27.904;2023-06-24T05:54:13;10.50;;;8.90;;
11522;SDS011;70090;43.208;27.904;2023-06-24T05:56:40;9.53;;;8.63;;
11522;SDS011;70090;43.208;27.904;2023-06-24T05:59:07;10.00;;;9.00;;
11522;SDS011;70090;43.208;27.904;2023-06-24T06:01:34;9.47;;;8.57;;
11522;SDS011;70090;43.208;27.904;2023-06-24T06:04:02;9.93;;;8.80;;
11522;SDS011;70090;43.208;27.904;2023-06-24T06:06:29;9.00;;;8.20;;
11522;SDS011;70090;43.208;27.904;2023-06-24T06:08:56;9.90;;;8.87;;
11522;SDS011;70090;43.208;27.904;2023-06-24T06:11:23;9.93;;;9.00;;
11522;SDS011;70090;43.208;27.904;2023-06-24T06:13:50;9.30;;;8.37;;
11522;SDS011;70090;43.208;27.904;2023-06-24T06:16:17;10.17;;;8.60;;
11522;SDS011;70090;43.208;27.904;2023-06-24T06:18:44;9.33;;;8.40;;
11522;SDS011;70090;43.208;27.904;2023-06-24T06:21:12;11.17;;;8.40;;
11522;SDS011;70090;43.208;27.904;2023-06-24T06:23:39;10.70;;;8.60;;
11522;SDS011;70090;43.208;27.904;2023-06-24T06:26:06;9.47;;;8.47;;
11522;SDS011;70090;43.208;27.904;2023-06-24T06:28:34;11.27;;;8.77;;
11522;SDS011;70090;43.208;27.904;2023-06-24T06:31:00;9.67;;;8.77;;
11522;SDS011;70090;43.208;27.904;2023-06-24T06:33:27;11.07;;;8.77;;
11522;SDS011;70090;43.208;27.904;2023-06-24T06:35:54;10.10;;;8.40;;
11522;SDS011;70090;43.208;27.904;2023-06-24T06:38:22;8.93;;;8.17;;
11522;SDS011;70090;43.208;27.904;2023-06-24T06:40:49;9.53;;;8.60;;
11522;SDS011;70090;43.208;27.904;2023-06-24T06:43:16;9.63;;;8.73;;
11522;SDS011;70090;43.208;27.904;2023-06-24T06:45:43;9.70;;;8.70;;
11522;SDS011;70090;43.208;27.904;2023-06-24T06:48:10;10.07;;;8.93;;
11522;SDS011;70090;43.208;27.904;2023-06-24T06:50:37;9.50;;;8.70;;
11522;SDS011;70090;43.208;27.904;2023-06-24T06:53:03;8.77;;;7.73;;
11522;SDS011;70090;43.208;27.904;2023-06-24T06:55:32;9.13;;;8.20;;
11522;SDS011;70090;43.208;27.904;2023-06-24T06:57:59;9.60;;;8.20;;
11522;SDS011;70090;43.208;27.904;2023-06-24T07:00:25;12.20;;;9.70;;
11522;SDS011;70090;43.208;27.904;2023-06-24T07:02:52;12.47;;;9.00;;
11522;SDS011;70090;43.208;27.904;2023-06-24T07:05:19;9.50;;;8.60;;
11522;SDS011;70090;43.208;27.904;2023-06-24T07:07:46;9.40;;;8.50;;
11522;SDS011;70090;43.208;27.904;2023-06-24T07:10:15;9.17;;;8.30;;
11522;SDS011;70090;43.208;27.904;2023-06-24T07:12:43;9.33;;;8.53;;
11522;SDS011;70090;43.208;27.904;2023-06-24T07:15:10;10.40;;;9.40;;
11522;SDS011;70090;43.208;27.904;2023-06-24T07:17:37;9.77;;;8.77;;
11522;SDS011;70090;43.208;27.904;2023-06-24T07:20:05;9.30;;;8.43;;
11522;SDS011;70090;43.208;27.904;2023-06-24T07:22:32;9.60;;;8.80;;
11522;SDS011;70090;43.208;27.904;2023-06-24T07:24:59;9.40;;;8.50;;
11522;SDS011;70090;43.208;27.904;2023-06-24T07:27:26;9.40;;;8.40;;
11522;SDS011;70090;43.208;27.904;2023-06-24T07:29:54;14.93;;;8.87;;
11522;SDS011;70090;43.208;27.904;2023-06-24T07:32:21;9.77;;;8.77;;
11522;SDS011;70090;43.208;27.904;2023-06-24T07:34:47;9.70;;;8.33;;
11522;SDS011;70090;43.208;27.904;2023-06-24T07:37:14;9.67;;;8.40;;
11522;SDS011;70090;43.208;27.904;2023-06-24T07:39:41;9.90;;;7.90;;
11522;SDS011;70090;43.208;27.904;2023-06-24T07:42:08;9.07;;;8.37;;
11522;SDS011;70090;43.208;27.904;2023-06-24T07:44:35;9.87;;;8.87;;
11522;SDS011;70090;43.208;27.904;2023-06-24T07:47:06;9.27;;;8.37;;
11522;SDS011;70090;43.208;27.904;2023-06-24T07:49:33;8.70;;;7.90;;
11522;SDS011;70090;43.208;27.904;2023-06-24T07:52:00;9.80;;;8.80;;
11522;SDS011;70090;43.208;27.904;2023-06-24T07:54:27;9.30;;;8.50;;
11522;SDS011;70090;43.208;27.904;2023-06-24T07:56:54;8.67;;;7.63;;
11522;SDS011;70090;43.208;27.904;2023-06-24T07:59:21;9.53;;;7.93;;
11522;SDS011;70090;43.208;27.904;2023-06-24T08:01:47;8.60;;;7.90;;
11522;SDS011;70090;43.208;27.904;2023-06-24T08:04:16;8.73;;;7.83;;
11522;SDS011;70090;43.208;27.904;2023-06-24T08:06:43;8.30;;;7.60;;
11522;SDS011;70090;43.208;27.904;2023-06-24T08:09:10;9.40;;;8.47;;
11522;SDS011;70090;43.208;27.904;2023-06-24T08:11:37;8.80;;;7.93;;
11522;SDS011;70090;43.208;27.904;2023-06-24T08:14:04;10.17;;;8.60;;
11522;SDS011;70090;43.208;27.904;2023-06-24T08:16:31;10.17;;;8.97;;
11522;SDS011;70090;43.208;27.904;2023-06-24T08:18:57;10.20;;;8.13;;
11522;SDS011;70090;43.208;27.904;2023-06-24T08:21:25;9.03;;;8.23;;
11522;SDS011;70090;43.208;27.904;2023-06-24T08:23:52;10.07;;;8.57;;
11522;SDS011;70090;43.208;27.904;2023-06-24T08:26:19;9.80;;;9.00;;
11522;SDS011;70090;43.208;27.904;2023-06-24T08:28:47;8.83;;;8.00;;
11522;SDS011;70090;43.208;27.904;2023-06-24T08:31:14;9.67;;;7.80;;
11522;SDS011;70090;43.208;27.904;2023-06-24T08:33:42;8.93;;;7.77;;
11522;SDS011;70090;43.208;27.904;2023-06-24T08:36:09;8.67;;;7.83;;
11522;SDS011;70090;43.208;27.904;2023-06-24T08:38:38;9.53;;;8.37;;
11522;SDS011;70090;43.208;27.904;2023-06-24T08:41:05;8.70;;;7.30;;
11522;SDS011;70090;43.208;27.904;2023-06-24T08:43:32;9.10;;;7.80;;
11522;SDS011;70090;43.208;27.904;2023-06-24T08:45:59;8.60;;;7.80;;
11522;SDS011;70090;43.208;27.904;2023-06-24T08:48:26;8.90;;;7.10;;
11522;SDS011;70090;43.208;27.904;2023-06-24T08:50:56;17.63;;;8.00;;
11522;SDS011;70090;43.208;27.904;2023-06-24T08:53:24;7.97;;;7.17;;
11522;SDS011;70090;43.208;27.904;2023-06-24T08:55:54;9.03;;;7.70;;
11522;SDS011;70090;43.208;27.904;2023-06-24T08:58:23;11.30;;;7.43;;
11522;SDS011;70090;43.208;27.904;2023-06-24T09:00:51;9.43;;;7.03;;
11522;SDS011;70090;43.208;27.904;2023-06-24T09:03:17;9.73;;;8.13;;
11522;SDS011;70090;43.208;27.904;2023-06-24T09:05:44;7.90;;;7.17;;
11522;SDS011;70090;43.208;27.904;2023-06-24T09:08:11;10.40;;;7.57;;
11522;SDS011;70090;43.208;27.904;2023-06-24T09:10:38;7.47;;;6.77;;
11522;SDS011;70090;43.208;27.904;2023-06-24T09:13:06;9.10;;;7.80;;
11522;SDS011;70090;43.208;27.904;2023-06-24T09:15:33;8.20;;;7.03;;
11522;SDS011;70090;43.208;27.904;2023-06-24T09:18:01;7.97;;;6.93;;
11522;SDS011;70090;43.208;27.904;2023-06-24T09:20:29;8.43;;;6.73;;
11522;SDS011;70090;43.208;27.904;2023-06-24T09:23:00;8.97;;;6.93;;
11522;SDS011;70090;43.208;27.904;2023-06-24T09:25:28;8.20;;;7.00;;
11522;SDS011;70090;43.208;27.904;2023-06-24T09:27:58;7.40;;;6.70;;
11522;SDS011;70090;43.208;27.904;2023-06-24T09:30:27;7.83;;;6.63;;
11522;SDS011;70090;43.208;27.904;2023-06-24T09:32:54;8.20;;;6.70;;
11522;SDS011;70090;43.208;27.904;2023-06-24T09:35:22;8.60;;;7.70;;
11522;SDS011;70090;43.208;27.904;2023-06-24T09:37:50;7.97;;;6.50;;
11522;SDS011;70090;43.208;27.904;2023-06-24T09:40:17;7.60;;;6.40;;
11522;SDS011;70090;43.208;27.904;2023-06-24T09:42:48;8.20;;;7.40;;
11522;SDS011;70090;43.208;27.904;2023-06-24T09:45:35;6.93;;;6.23;;
11522;SDS011;70090;43.208;27.904;2023-06-24T09:48:02;7.47;;;6.30;;
11522;SDS011;70090;43.208;27.904;2023-06-24T09:50:30;7.10;;;6.40;;
11522;SDS011;70090;43.208;27.904;2023-06-24T09:52:56;8.33;;;6.13;;
11522;SDS011;70090;43.208;27.904;2023-06-24T09:55:25;8.17;;;6.80;;
11522;SDS011;70090;43.208;27.904;2023-06-24T09:58:09;8.10;;;6.70;;
11522;SDS011;70090;43.208;27.904;2023-06-24T10:00:38;9.77;;;6.73;;
11522;SDS011;70090;43.208;27.904;2023-06-24T10:03:05;8.47;;;6.73;;
11522;SDS011;70090;43.208;27.904;2023-06-24T10:05:33;7.00;;;6.27;;
11522;SDS011;70090;43.208;27.904;2023-06-24T10:08:00;8.80;;;7.00;;
11522;SDS011;70090;43.208;27.904;2023-06-24T10:10:28;9.17;;;7.33;;
11522;SDS011;70090;43.208;27.904;2023-06-24T10:12:55;8.43;;;6.60;;
11522;SDS011;70090;43.208;27.904;2023-06-24T10:15:22;8.03;;;7.20;;
11522;SDS011;70090;43.208;27.904;2023-06-24T10:17:51;10.00;;;6.50;;
11522;SDS011;70090;43.208;27.904;2023-06-24T10:20:23;8.10;;;7.10;;
11522;SDS011;70090;43.208;27.904;2023-06-24T10:22:51;7.60;;;6.80;;
11522;SDS011;70090;43.208;27.904;2023-06-24T10:25:18;7.80;;;6.87;;
11522;SDS011;70090;43.208;27.904;2023-06-24T10:27:47;7.17;;;6.50;;
11522;SDS011;70090;43.208;27.904;2023-06-24T10:30:20;6.87;;;6.17;;
11522;SDS011;70090;43.208;27.904;2023-06-24T10:32:52;8.17;;;6.43;;
11522;SDS011;70090;43.208;27.904;2023-06-24T10:35:23;7.30;;;6.50;;
11522;SDS011;70090;43.208;27.904;2023-06-24T10:37:57;7.77;;;7.03;;
11522;SDS011;70090;43.208;27.904;2023-06-24T10:40:34;8.37;;;6.80;;
11522;SDS011;70090;43.208;27.904;2023-06-24T10:43:04;7.83;;;6.87;;
11522;SDS011;70090;43.208;27.904;2023-06-24T10:45:51;8.70;;;6.27;;
11522;SDS011;70090;43.208;27.904;2023-06-24T10:48:20;7.40;;;6.50;;
11522;SDS011;70090;43.208;27.904;2023-06-24T10:50:47;7.00;;;6.27;;
11522;SDS011;70090;43.208;27.904;2023-06-24T10:53:15;6.77;;;5.90;;
11522;SDS011;70090;43.208;27.904;2023-06-24T10:55:43;7.07;;;6.27;;
11522;SDS011;70090;43.208;27.904;2023-06-24T10:58:11;7.87;;;7.07;;
11522;SDS011;70090;43.208;27.904;2023-06-24T11:00:40;7.50;;;6.80;;
11522;SDS011;70090;43.208;27.904;2023-06-24T11:03:09;7.10;;;6.10;;
11522;SDS011;70090;43.208;27.904;2023-06-24T11:05:38;7.90;;;7.20;;
11522;SDS011;70090;43.208;27.904;2023-06-24T11:08:06;8.07;;;6.53;;
11522;SDS011;70090;43.208;27.904;2023-06-24T11:10:33;7.90;;;6.60;;
11522;SDS011;70090;43.208;27.904;2023-06-24T11:13:07;7.30;;;6.60;;
11522;SDS011;70090;43.208;27.904;2023-06-24T11:15:34;8.70;;;6.70;;
11522;SDS011;70090;43.208;27.904;2023-06-24T11:18:01;8.90;;;7.13;;
11522;SDS011;70090;43.208;27.904;2023-06-24T11:20:29;7.87;;;7.07;;
11522;SDS011;70090;43.208;27.904;2023-06-24T11:22:57;8.10;;;6.80;;
11522;SDS011;70090;43.208;27.904;2023-06-24T11:25:24;9.17;;;6.30;;
11522;SDS011;70090;43.208;27.904;2023-06-24T11:27:51;7.10;;;6.40;;
11522;SDS011;70090;43.208;27.904;2023-06-24T11:30:19;10.53;;;9.00;;
11522;SDS011;70090;43.208;27.904;2023-06-24T11:32:45;8.90;;;7.00;;
11522;SDS011;70090;43.208;27.904;2023-06-24T11:35:15;7.90;;;7.13;;
11522;SDS011;70090;43.208;27.904;2023-06-24T11:37:42;7.00;;;6.40;;
11522;SDS011;70090;43.208;27.904;2023-06-24T11:40:12;6.70;;;6.03;;
11522;SDS011;70090;43.208;27.904;2023-06-24T11:42:42;6.90;;;6.20;;
11522;SDS011;70090;43.208;27.904;2023-06-24T11:45:10;7.50;;;6.80;;
11522;SDS011;70090;43.208;27.904;2023-06-24T11:47:38;8.57;;;7.33;;
11522;SDS011;70090;43.208;27.904;2023-06-24T11:50:06;8.17;;;7.30;;
11522;SDS011;70090;43.208;27.904;2023-06-24T11:52:38;7.90;;;6.50;;
11522;SDS011;70090;43.208;27.904;2023-06-24T11:55:12;8.80;;;6.43;;
11522;SDS011;70090;43.208;27.904;2023-06-24T11:57:52;6.87;;;6.17;;
11522;SDS011;70090;43.208;27.904;2023-06-24T12:00:20;8.03;;;6.73;;
11522;SDS011;70090;43.208;27.904;2023-06-24T12:02:55;7.13;;;6.37;;
11522;SDS011;70090;43.208;27.904;2023-06-24T12:05:23;8.80;;;6.40;;
11522;SDS011;70090;43.208;27.904;2023-06-24T12:07:57;9.47;;;7.10;;
11522;SDS011;70090;43.208;27.904;2023-06-24T12:10:26;8.60;;;7.87;;
11522;SDS011;70090;43.208;27.904;2023-06-24T12:12:53;9.53;;;6.63;;
11522;SDS011;70090;43.208;27.904;2023-06-24T12:15:21;7.97;;;6.50;;
11522;SDS011;70090;43.208;27.904;2023-06-24T12:17:48;7.50;;;6.10;;
11522;SDS011;70090;43.208;27.904;2023-06-24T12:20:15;6.90;;;6.20;;
11522;SDS011;70090;43.208;27.904;2023-06-24T12:22:43;6.97;;;5.87;;
11522;SDS011;70090;43.208;27.904;2023-06-24T12:25:10;8.80;;;6.40;;
11522;SDS011;70090;43.208;27.904;2023-06-24T12:27:38;8.93;;;6.23;;
11522;SDS011;70090;43.208;27.904;2023-06-24T12:30:06;7.17;;;6.40;;
11522;SDS011;70090;43.208;27.904;2023-06-24T12:32:34;8.43;;;6.33;;
11522;SDS011;70090;43.208;27.904;2023-06-24T12:35:01;7.07;;;6.37;;
11522;SDS011;70090;43.208;27.904;2023-06-24T12:37:29;6.63;;;5.97;;
11522;SDS011;70090;43.208;27.904;2023-06-24T12:39:57;8.13;;;6.50;;
11522;SDS011;70090;43.208;27.904;2023-06-24T12:42:24;7.37;;;6.53;;
11522;SDS011;70090;43.208;27.904;2023-06-24T12:44:53;7.40;;;6.37;;
11522;SDS011;70090;43.208;27.904;2023-06-24T12:47:20;6.77;;;6.07;;
11522;SDS011;70090;43.208;27.904;2023-06-24T12:49:48;7.17;;;5.80;;
11522;SDS011;70090;43.208;27.904;2023-06-24T12:52:16;7.10;;;6.50;;
11522;SDS011;70090;43.208;27.904;2023-06-24T12:54:43;7.00;;;6.40;;
11522;SDS011;70090;43.208;27.904;2023-06-24T12:57:09;8.50;;;6.13;;
11522;SDS011;70090;43.208;27.904;2023-06-24T12:59:36;7.30;;;5.83;;
11522;SDS011;70090;43.208;27.904;2023-06-24T13:02:05;8.00;;;6.23;;
11522;SDS011;70090;43.208;27.904;2023-06-24T13:04:32;7.23;;;6.03;;
11522;SDS011;70090;43.208;27.904;2023-06-24T13:06:59;6.77;;;6.10;;
11522;SDS011;70090;43.208;27.904;2023-06-24T13:09:26;6.60;;;6.00;;
11522;SDS011;70090;43.208;27.904;2023-06-24T13:11:53;6.77;;;6.17;;
11522;SDS011;70090;43.208;27.904;2023-06-24T13:14:19;6.90;;;6.20;;
11522;SDS011;70090;43.208;27.904;2023-06-24T13:16:46;6.90;;;6.20;;
11522;SDS011;70090;43.208;27.904;2023-06-24T13:19:14;6.80;;;6.20;;
11522;SDS011;70090;43.208;27.904;2023-06-24T13:21:42;6.53;;;5.93;;
11522;SDS011;70090;43.208;27.904;2023-06-24T13:24:09;6.50;;;5.87;;
11522;SDS011;70090;43.208;27.904;2023-06-24T13:26:37;7.57;;;6.23;;
11522;SDS011;70090;43.208;27.904;2023-06-24T13:29:04;6.90;;;6.20;;
11522;SDS011;70090;43.208;27.904;2023-06-24T13:31:32;8.53;;;5.80;;
11522;SDS011;70090;43.208;27.904;2023-06-24T13:33:59;6.47;;;5.80;;
11522;SDS011;70090;43.208;27.904;2023-06-24T13:36:31;7.73;;;6.17;;
11522;SDS011;70090;43.208;27.904;2023-06-24T13:39:00;6.87;;;6.27;;
11522;SDS011;70090;43.208;27.904;2023-06-24T13:41:27;6.93;;;5.80;;
11522;SDS011;70090;43.208;27.904;2023-06-24T13:43:57;6.97;;;6.27;;
11522;SDS011;70090;43.208;27.904;2023-06-24T13:46:24;10.60;;;6.17;;
11522;SDS011;70090;43.208;27.904;2023-06-24T13:48:51;7.53;;;5.87;;
11522;SDS011;70090;43.208;27.904;2023-06-24T13:51:18;8.33;;;6.17;;
11522;SDS011;70090;43.208;27.904;2023-06-24T13:53:47;7.53;;;5.70;;
11522;SDS011;70090;43.208;27.904;2023-06-24T13:56:15;6.27;;;5.63;;
11522;SDS011;70090;43.208;27.904;2023-06-24T13:58:42;6.97;;;6.27;;
11522;SDS011;70090;43.208;27.904;2023-06-24T14:01:09;7.37;;;6.03;;
11522;SDS011;70090;43.208;27.904;2023-06-24T14:03:36;6.47;;;5.70;;
11522;SDS011;70090;43.208;27.904;2023-06-24T14:06:03;6.97;;;6.20;;
11522;SDS011;70090;43.208;27.904;2023-06-24T14:08:31;8.63;;;5.70;;
11522;SDS011;70090;43.208;27.904;2023-06-24T14:11:00;8.63;;;6.00;;
11522;SDS011;70090;43.208;27.904;2023-06-24T14:13:28;7.07;;;6.37;;
11522;SDS011;70090;43.208;27.904;2023-06-24T14:15:56;6.93;;;6.30;;
11522;SDS011;70090;43.208;27.904;2023-06-24T14:18:23;6.73;;;6.03;;
11522;SDS011;70090;43.208;27.904;2023-06-24T14:20:50;8.30;;;6.47;;
11522;SDS011;70090;43.208;27.904;2023-06-24T14:23:17;8.77;;;6.37;;
11522;SDS011;70090;43.208;27.904;2023-06-24T14:25:44;6.90;;;6.27;;
11522;SDS011;70090;43.208;27.904;2023-06-24T14:28:12;7.17;;;6.53;;
11522;SDS011;70090;43.208;27.904;2023-06-24T14:30:39;7.37;;;6.53;;
11522;SDS011;70090;43.208;27.904;2023-06-24T14:33:06;6.87;;;6.27;;